createdAt,value
2022-12-15T00:00:10.864Z,99819.97
2022-12-15T00:03:08.266Z,99822.59
2022-12-15T00:06:07.159Z,99836.22
2022-12-15T00:09:05.313Z,99850.72
2022-12-15T00:12:05.116Z,99848.84
2022-12-15T00:15:02.781Z,99849.56
2022-12-15T00:18:01.638Z,99865.69
2022-12-15T00:20:59.123Z,99879.28
2022-12-15T00:24:00.016Z,99890.22
2022-12-15T00:27:00.721Z,99899.34
2022-12-15T00:30:01.404Z,99924.94
2022-12-15T00:32:59.846Z,99935.31
2022-12-15T00:35:57.289Z,99951.66
2022-12-15T00:38:43.311Z,99967.88
2022-12-15T00:41:23.276Z,99970.47
2022-12-15T00:44:03.078Z,99989.31
2022-12-15T00:46:58.086Z,99997.09
2022-12-15T00:49:56.450Z,100008.16
2022-12-15T00:52:55.444Z,100018.50
2022-12-15T00:55:56.435Z,100015.97
2022-12-15T00:58:54.955Z,100027.91
2022-12-15T01:01:52.454Z,100037.41
2022-12-15T01:04:51.621Z,100042.56
2022-12-15T01:07:50.555Z,100034.00
2022-12-15T01:10:49.365Z,100039.16
2022-12-15T01:13:49.938Z,100035.78
2022-12-15T01:16:49.022Z,100042.59
2022-12-15T01:19:48.491Z,100039.19
2022-12-15T01:22:31.405Z,100034.88
2022-12-15T01:25:12.450Z,100028.94
2022-12-15T01:27:54.213Z,100023.81
2022-12-15T01:30:35.257Z,100025.44
2022-12-15T01:33:17.266Z,100019.44
2022-12-15T01:35:58.905Z,100025.47
2022-12-15T01:38:39.477Z,100020.34
2022-12-15T01:41:20.826Z,100000.59
2022-12-15T01:44:15.938Z,100000.53
2022-12-15T01:46:56.693Z,99997.97
2022-12-15T01:49:37.804Z,99997.09
2022-12-15T01:52:17.914Z,100003.13
2022-12-15T01:55:01.070Z,100008.16
2022-12-15T01:57:42.244Z,100010.66
2022-12-15T02:00:23.520Z,100018.28
2022-12-15T02:03:03.740Z,100027.63
2022-12-15T02:05:44.700Z,100030.13
2022-12-15T02:08:26.512Z,100036.16
2022-12-15T02:11:14.157Z,100048.16
2022-12-15T02:13:59.092Z,100050.59
2022-12-15T02:16:45.936Z,100053.09
2022-12-15T02:19:37.993Z,100055.63
2022-12-15T02:22:22.180Z,100060.69
2022-12-15T02:25:07.108Z,100074.19
2022-12-15T02:27:56.625Z,100072.25
2022-12-15T02:30:38.723Z,100080.63
2022-12-15T02:33:20.823Z,100099.19
2022-12-15T02:36:02.792Z,100106.78
2022-12-15T02:38:43.417Z,100112.75
2022-12-15T02:41:40.899Z,100111.59
2022-12-15T02:44:25.486Z,100130.31
2022-12-15T02:47:18.705Z,100135.31
2022-12-15T02:50:04.107Z,100148.88
2022-12-15T02:52:48.444Z,100162.53
2022-12-15T02:55:30.396Z,100158.13
2022-12-15T02:58:13.257Z,100164.91
2022-12-15T03:00:56.652Z,100169.09
2022-12-15T03:03:37.715Z,100160.50
2022-12-15T03:06:18.854Z,100173.22
2022-12-15T03:08:58.641Z,100179.91
2022-12-15T03:11:38.650Z,100183.38
2022-12-15T03:14:20.350Z,100185.03
2022-12-15T03:17:01.314Z,100193.59
2022-12-15T03:19:42.663Z,100198.59
2022-12-15T03:22:22.636Z,100212.63
2022-12-15T03:25:04.148Z,100209.22
2022-12-15T03:27:45.281Z,100209.22
2022-12-15T03:30:26.711Z,100208.22
2022-12-15T03:33:06.688Z,100218.31
2022-12-15T03:35:51.089Z,100223.44
2022-12-15T03:38:32.952Z,100230.38
2022-12-15T03:41:13.941Z,100226.97
2022-12-15T03:43:53.735Z,100229.44
2022-12-15T03:46:33.544Z,100231.22
2022-12-15T03:49:13.333Z,100227.75
2022-12-15T03:51:53.776Z,100226.97
2022-12-15T03:54:36.529Z,100232.91
2022-12-15T03:57:19.562Z,100220.00
2022-12-15T04:00:04.447Z,100219.06
2022-12-15T04:02:53.474Z,100219.84
2022-12-15T04:05:36.580Z,100215.34
2022-12-15T04:08:17.622Z,100212.56
2022-12-15T04:10:57.529Z,100217.50
2022-12-15T04:13:38.840Z,100215.66
2022-12-15T04:16:20.781Z,100218.00
2022-12-15T04:19:15.565Z,100223.91
2022-12-15T04:21:56.038Z,100214.47
2022-12-15T04:24:54.914Z,100202.53
2022-12-15T04:27:59.856Z,100204.88
2022-12-15T04:31:01.285Z,100203.00
2022-12-15T04:34:01.457Z,100201.94
2022-12-15T04:37:00.394Z,100201.66
2022-12-15T04:39:58.833Z,100205.84
2022-12-15T04:42:59.850Z,100203.84
2022-12-15T04:45:57.663Z,100213.31
2022-12-15T04:48:58.780Z,100217.66
2022-12-15T04:51:57.006Z,100211.03
2022-12-15T04:54:54.698Z,100201.66
2022-12-15T04:57:55.644Z,100190.56
2022-12-15T05:00:56.369Z,100182.91
2022-12-15T05:03:54.738Z,100165.69
2022-12-15T05:06:52.259Z,100167.44
2022-12-15T05:09:53.134Z,100163.94
2022-12-15T05:12:51.790Z,100155.31
2022-12-15T05:15:50.517Z,100162.94
2022-12-15T05:18:50.287Z,100155.06
2022-12-15T05:21:50.850Z,100159.31
2022-12-15T05:24:51.674Z,100160.22
2022-12-15T05:27:50.046Z,100170.59
2022-12-15T05:30:47.711Z,100170.69
2022-12-15T05:33:29.063Z,100169.00
2022-12-15T05:36:10.394Z,100171.53
2022-12-15T05:38:51.956Z,100170.69
2022-12-15T05:41:32.993Z,100182.81
2022-12-15T05:44:13.017Z,100191.44
2022-12-15T05:46:54.307Z,100185.63
2022-12-15T05:49:35.671Z,100186.47
2022-12-15T05:52:17.414Z,100193.47
2022-12-15T05:54:58.472Z,100196.16
2022-12-15T05:57:38.424Z,100195.41
2022-12-15T06:00:20.173Z,100199.84
2022-12-15T06:03:02.700Z,100201.50
2022-12-15T06:05:47.626Z,100198.88
2022-12-15T06:08:31.511Z,100207.38
2022-12-15T06:11:12.495Z,100214.19
2022-12-15T06:13:53.534Z,100222.59
2022-12-15T06:16:42.612Z,100231.13
2022-12-15T06:19:30.372Z,100240.31
2022-12-15T06:22:12.287Z,100258.06
2022-12-15T06:24:53.135Z,100259.56
2022-12-15T06:27:32.934Z,100273.84
2022-12-15T06:30:16.084Z,100287.34
2022-12-15T06:32:57.369Z,100285.50
2022-12-15T06:35:38.541Z,100297.34
2022-12-15T06:38:20.549Z,100296.50
2022-12-15T06:41:02.022Z,100292.28
2022-12-15T06:43:45.515Z,100294.88
2022-12-15T06:46:28.912Z,100288.81
2022-12-15T06:49:09.741Z,100292.97
2022-12-15T06:51:51.075Z,100298.06
2022-12-15T06:54:31.807Z,100298.06
2022-12-15T06:57:11.606Z,100295.50
2022-12-15T06:59:51.498Z,100298.91
2022-12-15T07:02:33.224Z,100302.41
2022-12-15T07:05:14.363Z,100302.50
2022-12-15T07:08:11.242Z,100303.47
2022-12-15T07:10:52.260Z,100308.75
2022-12-15T07:13:34.009Z,100303.69
2022-12-15T07:16:15.439Z,100312.28
2022-12-15T07:18:56.223Z,100313.25
2022-12-15T07:21:37.993Z,100319.19
2022-12-15T07:24:19.086Z,100332.13
2022-12-15T07:26:58.947Z,100336.38
2022-12-15T07:29:40.287Z,100343.28
2022-12-15T07:32:20.129Z,100351.03
2022-12-15T07:35:05.380Z,100360.44
2022-12-15T07:37:46.060Z,100375.94
2022-12-15T07:40:27.958Z,100382.94
2022-12-15T07:43:11.101Z,100387.28
2022-12-15T07:45:54.062Z,100399.44
2022-12-15T07:48:36.018Z,100401.22
2022-12-15T07:51:19.615Z,100403.84
2022-12-15T07:54:00.915Z,100399.59
2022-12-15T07:56:40.887Z,100402.13
2022-12-15T07:59:22.205Z,100409.75
2022-12-15T08:02:04.389Z,100421.50
2022-12-15T08:04:44.952Z,100434.09
2022-12-15T08:07:26.703Z,100457.31
2022-12-15T08:10:08.265Z,100465.84
2022-12-15T08:12:49.586Z,100487.31
2022-12-15T08:15:30.576Z,100501.91
2022-12-15T08:18:10.375Z,100523.59
2022-12-15T08:20:51.121Z,100520.22
2022-12-15T08:23:34.015Z,100525.59
2022-12-15T08:26:15.408Z,100531.63
2022-12-15T08:28:55.962Z,100523.88
2022-12-15T08:31:37.837Z,100517.84
2022-12-15T08:34:18.849Z,100507.56
2022-12-15T08:36:59.612Z,100502.41
2022-12-15T08:39:40.075Z,100499.75
2022-12-15T08:42:19.778Z,100492.81
2022-12-15T08:44:59.671Z,100493.66
2022-12-15T08:47:41.511Z,100487.59
2022-12-15T08:50:34.266Z,100480.63
2022-12-15T08:53:30.929Z,100489.22
2022-12-15T08:56:12.845Z,100488.31
2022-12-15T08:58:56.158Z,100485.56
2022-12-15T09:01:39.386Z,100488.88
2022-12-15T09:04:20.483Z,100489.78
2022-12-15T09:07:02.250Z,100486.25
2022-12-15T09:09:43.477Z,100490.41
2022-12-15T09:12:26.670Z,100493.84
2022-12-15T09:15:08.469Z,100496.31
2022-12-15T09:17:49.054Z,100503.09
2022-12-15T09:20:29.078Z,100509.84
2022-12-15T09:23:10.309Z,100522.63
2022-12-15T09:25:48.309Z,100526.78
2022-12-15T09:28:28.360Z,100537.69
2022-12-15T09:31:10.398Z,100554.84
2022-12-15T09:33:51.921Z,100534.59
2022-12-15T09:36:33.333Z,100535.59
2022-12-15T09:39:15.970Z,100525.66
2022-12-15T09:41:58.172Z,100530.94
2022-12-15T09:44:38.397Z,100535.47
2022-12-15T09:47:18.686Z,100548.53
2022-12-15T09:50:02.905Z,100548.25
2022-12-15T09:52:47.326Z,100556.50
2022-12-15T09:55:28.072Z,100561.09
2022-12-15T09:58:14.048Z,100569.53
2022-12-15T10:00:55.651Z,100576.91
2022-12-15T10:03:42.072Z,100580.75
2022-12-15T10:06:25.941Z,100582.84
2022-12-15T10:09:13.490Z,100596.94
2022-12-15T10:11:55.171Z,100601.09
2022-12-15T10:14:40.342Z,100594.81
2022-12-15T10:17:22.611Z,100595.06
2022-12-15T10:20:05.434Z,100585.94
2022-12-15T10:22:45.241Z,100570.91
2022-12-15T10:25:31.959Z,100568.91
2022-12-15T10:28:17.717Z,100571.94
2022-12-15T10:30:59.275Z,100577.44
2022-12-15T10:33:48.524Z,100564.81
2022-12-15T10:36:31.587Z,100569.44
2022-12-15T10:39:16.122Z,100565.38
2022-12-15T10:42:17.329Z,100546.69
2022-12-15T10:44:58.517Z,100542.72
2022-12-15T10:47:39.486Z,100526.13
2022-12-15T10:50:24.963Z,100515.47
2022-12-15T10:53:08.806Z,100516.84
2022-12-15T10:55:50.279Z,100518.94
2022-12-15T10:58:31.499Z,100521.00
2022-12-15T11:01:17.946Z,100512.06
2022-12-15T11:04:01.383Z,100503.16
2022-12-15T11:06:43.209Z,100489.84
2022-12-15T11:09:25.869Z,100480.56
2022-12-15T11:12:34.179Z,100460.19
2022-12-15T11:15:28.807Z,100432.47
2022-12-15T11:18:12.619Z,100418.69
2022-12-15T11:20:53.641Z,100413.38
2022-12-15T11:23:38.775Z,100397.38
2022-12-15T11:26:26.094Z,100383.84
2022-12-15T11:29:11.478Z,100365.28
2022-12-15T11:31:53.297Z,100351.94
2022-12-15T11:34:34.744Z,100336.97
2022-12-15T11:37:18.287Z,100322.56
2022-12-15T11:40:02.033Z,100318.69
2022-12-15T11:42:45.236Z,100287.44
2022-12-15T11:45:26.832Z,100269.44
2022-12-15T11:48:11.905Z,100246.88
2022-12-15T11:50:54.851Z,100228.63
2022-12-15T11:53:40.977Z,100188.09
2022-12-15T11:56:23.933Z,100149.75
2022-12-15T11:59:14.762Z,100108.28
2022-12-15T12:02:03.058Z,100065.06
2022-12-15T12:04:50.800Z,100029.28
2022-12-15T12:07:41.808Z,100003.94
2022-12-15T12:10:27.432Z,99996.16
2022-12-15T12:13:11.885Z,99991.00
2022-12-15T12:15:55.526Z,99986.63
2022-12-15T12:18:36.702Z,99987.72
2022-12-15T12:21:17.959Z,99998.69
2022-12-15T12:23:59.310Z,100088.00
2022-12-15T12:26:41.241Z,100106.84
2022-12-15T12:29:21.959Z,100130.91
2022-12-15T12:32:05.508Z,100134.78
2022-12-15T12:34:51.611Z,100164.19
2022-12-15T12:37:34.703Z,100190.69
2022-12-15T12:40:18.881Z,100203.03
2022-12-15T12:42:57.726Z,100233.50
2022-12-15T12:45:40.631Z,100244.50
2022-12-15T12:48:23.493Z,100246.72
2022-12-15T12:51:12.648Z,100252.34
2022-12-15T12:53:53.074Z,100251.94
2022-12-15T12:56:33.978Z,100252.78
2022-12-15T12:59:36.311Z,100261.72
2022-12-15T13:02:37.968Z,100266.00
2022-12-15T13:05:26.262Z,100263.06
2022-12-15T13:08:34.379Z,100254.47
2022-12-15T13:11:53.351Z,100264.44
2022-12-15T13:14:48.221Z,100257.66
2022-12-15T13:17:32.841Z,100251.91
2022-12-15T13:20:22.001Z,100253.66
2022-12-15T13:23:20.503Z,100251.75
2022-12-15T13:26:06.595Z,100244.53
2022-12-15T13:28:53.312Z,100245.06
2022-12-15T13:31:34.761Z,100248.34
2022-12-15T13:34:22.626Z,100241.22
2022-12-15T13:37:03.739Z,100239.84
2022-12-15T13:39:56.900Z,100247.88
2022-12-15T13:42:52.915Z,100247.06
2022-12-15T13:45:48.940Z,100250.09
2022-12-15T13:48:35.366Z,100248.63
2022-12-15T13:51:20.792Z,100259.44
2022-12-15T13:54:03.899Z,100262.25
2022-12-15T13:56:49.077Z,100267.06
2022-12-15T13:59:41.646Z,100269.34
2022-12-15T14:02:26.403Z,100263.97
2022-12-15T14:05:15.072Z,100260.81
2022-12-15T14:07:59.109Z,100255.34
2022-12-15T14:10:41.929Z,100261.38
2022-12-15T14:13:23.712Z,100258.69
2022-12-15T14:16:24.657Z,100260.53
2022-12-15T14:19:10.117Z,100252.63
2022-12-15T14:21:50.882Z,100257.47
2022-12-15T14:24:40.415Z,100263.69
2022-12-15T14:27:24.743Z,100263.19
2022-12-15T14:30:29.358Z,100247.09
2022-12-15T14:33:12.632Z,100247.72
2022-12-15T14:35:55.186Z,100244.03
2022-12-15T14:38:38.248Z,100242.88
2022-12-15T14:41:20.330Z,100246.31
2022-12-15T14:44:36.711Z,100237.28
2022-12-15T14:47:05.571Z,100243.13
2022-12-15T14:49:48.079Z,100237.53
2022-12-15T14:52:48.872Z,100233.13
2022-12-15T14:55:35.391Z,100236.25
2022-12-15T14:58:28.375Z,100237.66
2022-12-15T15:01:22.708Z,100232.28
2022-12-15T15:04:04.055Z,100228.63
2022-12-15T15:06:50.561Z,100222.25
2022-12-15T15:09:33.264Z,100212.50
2022-12-15T15:12:15.791Z,100213.03
2022-12-15T15:15:00.283Z,100207.50
2022-12-15T15:17:48.468Z,100201.97
2022-12-15T15:20:29.644Z,100200.03
2022-12-15T15:23:14.546Z,100197.94
2022-12-15T15:25:56.457Z,100183.75
2022-12-15T15:28:37.899Z,100184.16
2022-12-15T15:31:27.251Z,100182.88
2022-12-15T15:34:11.222Z,100188.69
2022-12-15T15:36:52.258Z,100181.69
2022-12-15T15:39:32.168Z,100180.31
2022-12-15T15:42:15.448Z,100173.69
2022-12-15T15:44:56.423Z,100174.13
2022-12-15T15:47:40.125Z,100172.78
2022-12-15T15:50:22.474Z,100161.19
2022-12-15T15:53:02.218Z,100152.03
2022-12-15T15:55:44.027Z,100148.91
2022-12-15T15:58:25.043Z,100134.59
2022-12-15T16:01:11.137Z,100131.56
2022-12-15T16:03:56.374Z,100125.16
2022-12-15T16:06:39.781Z,100113.41
2022-12-15T16:09:23.462Z,100102.50
2022-12-15T16:12:03.285Z,100079.50
2022-12-15T16:14:43.082Z,100066.91
2022-12-15T16:17:22.929Z,100000.72
2022-12-15T16:20:02.682Z,100007.06
2022-12-15T16:22:42.881Z,100013.41
2022-12-15T16:25:27.336Z,100021.47
2022-12-15T16:28:12.185Z,100029.56
2022-12-15T16:30:55.378Z,100024.81
2022-12-15T16:33:36.130Z,100031.31
2022-12-15T16:36:15.916Z,100035.97
2022-12-15T16:38:55.743Z,100035.25
2022-12-15T16:41:35.603Z,100046.78
2022-12-15T16:44:16.336Z,100041.97
2022-12-15T16:46:57.407Z,100051.69
2022-12-15T16:49:40.280Z,100064.09
2022-12-15T16:52:21.336Z,100067.69
2022-12-15T16:55:02.591Z,100075.72
2022-12-15T16:57:42.410Z,100073.34
2022-12-15T17:00:23.024Z,100086.47
2022-12-15T17:03:03.827Z,100087.53
2022-12-15T17:05:48.846Z,100090.38
2022-12-15T17:08:30.983Z,100096.69
2022-12-15T17:11:13.443Z,100102.06
2022-12-15T17:13:56.316Z,100110.16
2022-12-15T17:16:37.117Z,100115.69
2022-12-15T17:19:21.060Z,100115.97
2022-12-15T17:22:03.466Z,100125.63
2022-12-15T17:24:45.615Z,100135.13
2022-12-15T17:27:27.899Z,100134.47
2022-12-15T17:30:13.387Z,100144.22
2022-12-15T17:32:53.452Z,100144.34
2022-12-15T17:35:33.335Z,100156.63
2022-12-15T17:38:13.619Z,100156.81
2022-12-15T17:40:54.782Z,100169.06
2022-12-15T17:43:36.431Z,100171.00
2022-12-15T17:46:19.495Z,100180.59
2022-12-15T17:49:00.420Z,100194.53
2022-12-15T17:51:40.114Z,100198.22
2022-12-15T17:54:19.956Z,100200.09
2022-12-15T17:57:02.155Z,100198.59
2022-12-15T17:59:42.764Z,100212.47
2022-12-15T18:02:22.654Z,100224.63
2022-12-15T18:05:03.952Z,100226.56
2022-12-15T18:07:43.843Z,100230.19
2022-12-15T18:10:28.613Z,100234.66
2022-12-15T18:13:14.364Z,100237.41
2022-12-15T18:15:56.632Z,100244.44
2022-12-15T18:18:37.407Z,100235.97
2022-12-15T18:21:17.515Z,100247.34
2022-12-15T18:23:58.601Z,100249.25
2022-12-15T18:26:39.981Z,100258.91
2022-12-15T18:29:19.810Z,100266.78
2022-12-15T18:31:59.653Z,100277.25
2022-12-15T18:34:39.972Z,100277.31
2022-12-15T18:37:21.433Z,100284.34
2022-12-15T18:40:04.944Z,100289.59
2022-12-15T18:42:45.520Z,100290.56
2022-12-15T18:45:28.349Z,100297.47
2022-12-15T18:48:14.777Z,100295.00
2022-12-15T18:50:56.384Z,100295.22
2022-12-15T18:53:40.943Z,100298.66
2022-12-15T18:56:23.698Z,100291.09
2022-12-15T18:59:04.957Z,100298.97
2022-12-15T19:01:45.497Z,100297.34
2022-12-15T19:04:26.338Z,100298.28
2022-12-15T19:07:11.126Z,100303.56
2022-12-15T19:09:52.094Z,100300.25
2022-12-15T19:12:31.960Z,100294.25
2022-12-15T19:15:16.932Z,100295.19
2022-12-15T19:18:15.599Z,100304.72
2022-12-15T19:21:12.896Z,100306.53
2022-12-15T19:23:52.761Z,100307.53
2022-12-15T19:26:32.624Z,100313.69
2022-12-15T19:29:15.542Z,100305.16
2022-12-15T19:31:55.628Z,100298.38
2022-12-15T19:34:38.820Z,100298.56
2022-12-15T19:37:22.547Z,100284.84
2022-12-15T19:40:03.046Z,100279.78
2022-12-15T19:42:44.372Z,100271.31
2022-12-15T19:45:29.237Z,100278.16
2022-12-15T19:48:13.072Z,100273.09
2022-12-15T19:50:55.239Z,100281.72
2022-12-15T19:53:40.324Z,100288.69
2022-12-15T19:56:21.866Z,100284.53
2022-12-15T19:59:02.820Z,100287.09
2022-12-15T20:01:43.756Z,100284.63
2022-12-15T20:04:25.201Z,100286.53
2022-12-15T20:07:06.446Z,100284.78
2022-12-15T20:09:46.323Z,100285.72
2022-12-15T20:12:26.112Z,100279.75
2022-12-15T20:15:15.427Z,100279.91
2022-12-15T20:17:56.624Z,100280.84
2022-12-15T20:20:36.710Z,100284.34
2022-12-15T20:23:17.036Z,100273.22
2022-12-15T20:25:58.033Z,100280.22
2022-12-15T20:28:39.341Z,100283.69
2022-12-15T20:31:22.349Z,100294.81
2022-12-15T20:34:02.398Z,100288.84
2022-12-15T20:36:43.598Z,100300.09
2022-12-15T20:39:30.598Z,100301.81
2022-12-15T20:42:12.473Z,100300.94
2022-12-15T20:44:54.211Z,100312.13
2022-12-15T20:47:35.752Z,100314.75
2022-12-15T20:50:28.449Z,100325.13
2022-12-15T20:53:12.683Z,100328.63
2022-12-15T20:55:52.977Z,100321.84
2022-12-15T20:58:39.865Z,100315.00
2022-12-15T21:01:24.044Z,100317.56
2022-12-15T21:04:05.842Z,100318.53
2022-12-15T21:06:52.941Z,100320.31
2022-12-15T21:09:35.603Z,100320.41
2022-12-15T21:12:18.497Z,100328.19
2022-12-15T21:15:15.788Z,100323.91
2022-12-15T21:18:36.504Z,100322.22
2022-12-15T21:20:59.042Z,100323.09
2022-12-15T21:23:42.878Z,100324.00
2022-12-15T21:26:23.917Z,100323.19
2022-12-15T21:29:10.355Z,100325.00
2022-12-15T21:31:50.823Z,100332.72
2022-12-15T21:34:35.160Z,100331.19
2022-12-15T21:37:18.971Z,100335.41
2022-12-15T21:40:03.977Z,100341.41
2022-12-15T21:42:48.591Z,100341.50
2022-12-15T21:45:34.869Z,100350.97
2022-12-15T21:48:35.530Z,100348.41
2022-12-15T21:51:18.679Z,100345.97
2022-12-15T21:53:58.732Z,100345.94
2022-12-15T21:56:39.347Z,100339.13
2022-12-15T21:59:20.453Z,100341.72
2022-12-15T22:02:01.685Z,100348.56
2022-12-15T22:04:44.701Z,100346.06
2022-12-15T22:07:26.705Z,100352.97
2022-12-15T22:10:09.786Z,100359.06
2022-12-15T22:12:59.031Z,100351.53
2022-12-15T22:15:41.125Z,100355.00
2022-12-15T22:18:25.221Z,100351.63
2022-12-15T22:21:07.950Z,100342.22
2022-12-15T22:23:50.744Z,100344.94
2022-12-15T22:26:32.155Z,100347.56
2022-12-15T22:29:13.958Z,100344.97
2022-12-15T22:31:55.689Z,100350.97
2022-12-15T22:34:37.743Z,100345.03
2022-12-15T22:37:21.950Z,100332.22
2022-12-15T22:40:01.773Z,100338.25
2022-12-15T22:42:47.470Z,100331.44
2022-12-15T22:45:30.170Z,100322.91
2022-12-15T22:48:10.829Z,100326.38
2022-12-15T22:50:50.635Z,100322.94
2022-12-15T22:53:31.701Z,100311.94
2022-12-15T22:56:21.277Z,100306.81
2022-12-15T22:59:05.880Z,100302.47
2022-12-15T23:01:45.939Z,100297.47
2022-12-15T23:04:28.573Z,100301.91
2022-12-15T23:07:11.143Z,100306.22
2022-12-15T23:10:12.177Z,100300.22
2022-12-15T23:12:54.576Z,100300.22
2022-12-15T23:15:54.769Z,100300.28
2022-12-15T23:18:35.903Z,100292.53
2022-12-15T23:21:16.212Z,100293.38
2022-12-15T23:23:57.921Z,100300.31
2022-12-15T23:26:38.666Z,100289.25
2022-12-15T23:29:19.945Z,100295.38
2022-12-15T23:31:59.995Z,100293.78
2022-12-15T23:34:41.175Z,100290.41
2022-12-15T23:37:23.725Z,100288.72
2022-12-15T23:40:07.868Z,100282.72
2022-12-15T23:42:48.533Z,100286.16
2022-12-15T23:45:28.485Z,100280.31
2022-12-15T23:48:14.934Z,100276.88
2022-12-15T23:50:59.183Z,100276.88
2022-12-15T23:53:39.567Z,100272.66
2022-12-15T23:56:23.199Z,100277.78
2022-12-15T23:59:07.899Z,100276.13
